createdAt,value
2023-01-13T00:01:52.425Z,70.50
2023-01-13T00:04:22.399Z,70.76
2023-01-13T00:06:52.535Z,71.08
2023-01-13T00:09:22.709Z,71.09
2023-01-13T00:11:52.769Z,70.49
2023-01-13T00:14:26.420Z,69.82
2023-01-13T00:16:56.406Z,69.04
2023-01-13T00:19:26.436Z,70.23
2023-01-13T00:21:56.459Z,69.95
2023-01-13T00:24:26.533Z,69.44
2023-01-13T00:26:56.619Z,69.96
2023-01-13T00:29:29.403Z,69.38
2023-01-13T00:31:59.350Z,69.37
2023-01-13T00:34:29.415Z,69.20
2023-01-13T00:36:59.424Z,69.08
2023-01-13T00:39:29.560Z,69.07
2023-01-13T00:42:11.944Z,69.64
2023-01-13T00:44:44.667Z,69.26
2023-01-13T00:47:14.637Z,69.05
2023-01-13T00:49:44.962Z,69.31
2023-01-13T00:52:15.424Z,69.14
2023-01-13T00:55:01.063Z,69.15
2023-01-13T00:57:31.117Z,68.83
2023-01-13T01:00:04.903Z,68.87
2023-01-13T01:02:34.906Z,68.51
2023-01-13T01:05:05.008Z,68.89
2023-01-13T01:07:35.047Z,68.43
2023-01-13T01:10:05.231Z,68.65
2023-01-13T01:12:35.286Z,68.23
2023-01-13T01:15:10.219Z,68.07
2023-01-13T01:17:40.854Z,68.11
2023-01-13T01:20:12.777Z,68.67
2023-01-13T01:22:42.897Z,67.77
2023-01-13T01:25:13.164Z,68.17
2023-01-13T01:28:06.517Z,68.96
2023-01-13T01:30:41.949Z,69.12
2023-01-13T01:33:12.027Z,68.79
2023-01-13T01:35:42.983Z,68.66
2023-01-13T01:38:13.101Z,68.70
2023-01-13T01:40:43.282Z,67.89
2023-01-13T01:43:30.394Z,66.90
2023-01-13T01:46:03.211Z,67.00
2023-01-13T01:48:37.907Z,67.01
2023-01-13T01:51:12.540Z,66.45
2023-01-13T01:53:44.370Z,66.37
2023-01-13T01:56:14.478Z,66.23
2023-01-13T01:58:49.956Z,66.51
2023-01-13T02:01:23.027Z,66.02
2023-01-13T02:03:59.228Z,66.54
2023-01-13T02:06:30.906Z,65.79
2023-01-13T02:09:02.767Z,65.81
2023-01-13T02:11:47.565Z,65.25
2023-01-13T02:14:17.787Z,64.92
2023-01-13T02:17:02.483Z,65.29
2023-01-13T02:19:57.775Z,64.92
2023-01-13T02:22:46.104Z,65.66
2023-01-13T02:25:37.244Z,65.68
2023-01-13T02:28:24.893Z,64.68
2023-01-13T02:31:15.160Z,65.59
2023-01-13T02:33:58.036Z,65.41
2023-01-13T02:36:35.064Z,65.59
2023-01-13T02:39:12.372Z,64.68
2023-01-13T02:42:02.216Z,64.07
2023-01-13T02:44:40.115Z,63.84
2023-01-13T02:47:19.018Z,64.50
2023-01-13T02:49:52.772Z,65.04
2023-01-13T02:52:27.868Z,64.68
2023-01-13T02:55:02.305Z,64.70
2023-01-13T02:57:35.749Z,64.78
2023-01-13T03:00:08.933Z,64.46
2023-01-13T03:02:41.673Z,64.44
2023-01-13T03:05:16.994Z,64.33
2023-01-13T03:08:07.635Z,64.35
2023-01-13T03:10:47.569Z,64.09
2023-01-13T03:13:43.114Z,64.12
2023-01-13T03:16:23.826Z,64.56
2023-01-13T03:19:08.810Z,64.66
2023-01-13T03:21:44.104Z,64.21
2023-01-13T03:24:20.180Z,64.70
2023-01-13T03:26:53.921Z,64.25
2023-01-13T03:29:31.599Z,63.83
2023-01-13T03:32:05.998Z,63.89
2023-01-13T03:34:45.991Z,63.97
2023-01-13T03:37:19.837Z,63.69
2023-01-13T03:39:55.792Z,63.85
2023-01-13T03:42:29.307Z,64.16
2023-01-13T03:45:03.267Z,63.68
2023-01-13T03:47:41.241Z,64.59
2023-01-13T03:50:18.414Z,64.47
2023-01-13T03:52:52.248Z,64.19
2023-01-13T03:55:28.460Z,64.34
2023-01-13T03:58:04.266Z,64.12
2023-01-13T04:00:39.281Z,64.13
2023-01-13T04:03:13.450Z,63.37
2023-01-13T04:05:49.561Z,63.97
2023-01-13T04:08:23.748Z,63.87
2023-01-13T04:11:08.261Z,63.81
2023-01-13T04:13:54.927Z,63.93
2023-01-13T04:16:24.993Z,63.36
2023-01-13T04:18:54.955Z,63.15
2023-01-13T04:21:27.802Z,63.34
2023-01-13T04:23:57.815Z,63.27
2023-01-13T04:26:27.735Z,64.02
2023-01-13T04:28:57.667Z,64.36
2023-01-13T04:31:27.795Z,63.63
2023-01-13T04:33:57.850Z,63.45
2023-01-13T04:36:30.532Z,63.33
2023-01-13T04:39:00.451Z,63.62
2023-01-13T04:41:50.492Z,63.85
2023-01-13T04:44:20.428Z,64.31
2023-01-13T04:46:50.352Z,64.10
2023-01-13T04:49:20.311Z,64.18
2023-01-13T04:51:52.882Z,64.24
2023-01-13T04:54:22.865Z,64.14
2023-01-13T04:56:52.802Z,64.09
2023-01-13T04:59:22.735Z,64.18
2023-01-13T05:01:52.850Z,64.29
2023-01-13T05:04:22.967Z,64.54
2023-01-13T05:06:55.602Z,64.57
2023-01-13T05:09:25.557Z,64.15
2023-01-13T05:12:07.917Z,64.90
2023-01-13T05:14:50.281Z,64.43
2023-01-13T05:17:23.237Z,64.29
2023-01-13T05:19:56.131Z,63.66
2023-01-13T05:22:41.122Z,63.56
2023-01-13T05:25:24.490Z,63.79
2023-01-13T05:27:56.521Z,63.64
2023-01-13T05:30:28.281Z,63.43
2023-01-13T05:32:58.371Z,63.44
2023-01-13T05:35:29.192Z,63.77
2023-01-13T05:38:01.754Z,64.29
2023-01-13T05:40:44.242Z,64.56
2023-01-13T05:43:25.212Z,64.58
2023-01-13T05:45:59.235Z,65.11
2023-01-13T05:48:32.898Z,65.11
2023-01-13T05:51:03.526Z,64.25
2023-01-13T05:53:36.628Z,64.92
2023-01-13T05:56:08.201Z,64.50
2023-01-13T05:58:38.331Z,64.00
2023-01-13T06:01:10.300Z,63.92
2023-01-13T06:03:41.123Z,63.95
2023-01-13T06:06:11.430Z,63.44
2023-01-13T06:08:43.992Z,63.37
2023-01-13T06:11:13.981Z,63.24
2023-01-13T06:13:44.106Z,63.26
2023-01-13T06:16:14.157Z,63.01
2023-01-13T06:18:44.164Z,62.74
2023-01-13T06:21:14.095Z,62.48
2023-01-13T06:23:46.736Z,62.30
2023-01-13T06:26:20.413Z,62.23
2023-01-13T06:28:50.535Z,61.94
2023-01-13T06:31:21.518Z,61.78
2023-01-13T06:33:56.407Z,61.61
2023-01-13T06:36:33.821Z,61.56
2023-01-13T06:39:07.304Z,61.54
2023-01-13T06:41:49.904Z,61.50
2023-01-13T06:44:20.594Z,61.50
2023-01-13T06:46:50.823Z,61.42
2023-01-13T06:49:21.766Z,61.51
2023-01-13T06:51:52.369Z,62.21
2023-01-13T06:54:27.588Z,62.11
2023-01-13T06:57:17.952Z,62.03
2023-01-13T06:59:47.889Z,61.90
2023-01-13T07:02:17.946Z,62.06
2023-01-13T07:04:48.098Z,62.32
2023-01-13T07:07:18.075Z,62.32
2023-01-13T07:09:50.667Z,63.05
2023-01-13T07:12:20.663Z,63.43
2023-01-13T07:15:03.070Z,63.14
2023-01-13T07:17:33.502Z,63.19
2023-01-13T07:20:03.515Z,63.42
2023-01-13T07:22:33.614Z,63.64
2023-01-13T07:25:06.626Z,63.48
2023-01-13T07:27:36.614Z,63.53
2023-01-13T07:30:06.897Z,62.87
2023-01-13T07:32:36.969Z,62.41
2023-01-13T07:35:08.010Z,62.12
2023-01-13T07:37:39.700Z,62.21
2023-01-13T07:40:13.733Z,62.53
2023-01-13T07:42:56.101Z,62.33
2023-01-13T07:45:26.333Z,62.56
2023-01-13T07:47:56.575Z,62.21
2023-01-13T07:50:26.603Z,61.63
2023-01-13T07:53:00.168Z,61.45
2023-01-13T07:55:32.958Z,60.68
2023-01-13T07:58:02.896Z,60.07
2023-01-13T08:00:35.723Z,60.26
2023-01-13T08:03:05.849Z,60.72
2023-01-13T08:05:37.739Z,60.20
2023-01-13T08:08:08.203Z,59.60
2023-01-13T08:10:40.844Z,59.11
2023-01-13T08:13:21.176Z,59.04
2023-01-13T08:15:52.975Z,58.52
2023-01-13T08:18:24.812Z,58.75
2023-01-13T08:20:55.915Z,58.67
2023-01-13T08:23:26.430Z,58.77
2023-01-13T08:26:02.914Z,58.66
2023-01-13T08:28:33.902Z,58.29
2023-01-13T08:31:04.711Z,58.27
2023-01-13T08:33:34.954Z,58.63
2023-01-13T08:36:06.919Z,58.98
2023-01-13T08:38:38.153Z,59.42
2023-01-13T08:41:21.675Z,59.69
2023-01-13T08:43:51.647Z,60.17
2023-01-13T08:46:21.856Z,60.51
2023-01-13T08:48:51.831Z,60.01
2023-01-13T08:51:21.783Z,60.27
2023-01-13T08:53:51.803Z,60.61
2023-01-13T08:56:24.358Z,60.84
2023-01-13T08:58:55.575Z,60.90
2023-01-13T09:01:26.734Z,61.01
2023-01-13T09:03:57.491Z,61.53
2023-01-13T09:06:27.604Z,62.15
2023-01-13T09:08:57.573Z,61.84
2023-01-13T09:11:46.542Z,62.04
2023-01-13T09:14:20.461Z,62.71
2023-01-13T09:16:50.625Z,62.31
2023-01-13T09:19:20.606Z,62.30
2023-01-13T09:21:52.562Z,62.10
2023-01-13T09:24:22.517Z,61.38
2023-01-13T09:26:55.353Z,60.28
2023-01-13T09:29:25.589Z,61.37
2023-01-13T09:31:57.900Z,62.58
2023-01-13T09:34:40.459Z,61.85
2023-01-13T09:37:11.060Z,61.95
2023-01-13T09:39:41.058Z,60.90
2023-01-13T09:42:35.580Z,60.43
2023-01-13T09:45:09.592Z,60.91
2023-01-13T09:47:46.913Z,59.81
2023-01-13T09:50:34.076Z,59.25
2023-01-13T09:53:04.526Z,58.77
2023-01-13T09:55:37.340Z,58.83
2023-01-13T09:58:16.864Z,59.20
2023-01-13T10:00:53.882Z,60.35
2023-01-13T10:03:27.884Z,60.47
2023-01-13T10:06:04.789Z,60.24
2023-01-13T10:08:37.402Z,59.58
2023-01-13T10:11:28.029Z,59.24
2023-01-13T10:14:04.173Z,58.92
2023-01-13T10:16:42.553Z,59.66
2023-01-13T10:19:22.671Z,59.95
2023-01-13T10:22:22.843Z,60.44
2023-01-13T10:25:09.540Z,60.38
2023-01-13T10:27:41.869Z,60.03
2023-01-13T10:30:22.722Z,58.68
2023-01-13T10:32:57.552Z,58.19
2023-01-13T10:35:56.628Z,57.45
2023-01-13T10:38:33.878Z,58.22
2023-01-13T10:41:05.304Z,58.23
2023-01-13T10:43:35.549Z,58.05
2023-01-13T10:46:13.586Z,58.14
2023-01-13T10:48:45.311Z,57.70
2023-01-13T10:51:30.504Z,57.90
2023-01-13T10:54:03.726Z,57.63
2023-01-13T10:56:35.912Z,57.79
2023-01-13T10:59:17.301Z,57.37
2023-01-13T11:02:02.598Z,57.40
2023-01-13T11:04:39.007Z,56.90
2023-01-13T11:07:24.388Z,56.81
2023-01-13T11:10:13.428Z,56.52
2023-01-13T11:12:51.639Z,56.06
2023-01-13T11:15:25.460Z,55.92
2023-01-13T11:18:12.779Z,55.46
2023-01-13T11:20:44.988Z,55.67
2023-01-13T11:23:22.013Z,55.64
2023-01-13T11:25:57.828Z,55.71
2023-01-13T11:28:43.260Z,55.21
2023-01-13T11:31:21.514Z,54.22
2023-01-13T11:34:00.184Z,53.83
2023-01-13T11:36:36.046Z,52.44
2023-01-13T11:39:14.778Z,50.77
2023-01-13T11:41:47.474Z,49.42
2023-01-13T11:44:24.653Z,47.94
2023-01-13T11:46:56.425Z,45.96
2023-01-13T11:49:33.583Z,45.73
2023-01-13T11:52:10.761Z,44.51
2023-01-13T11:55:06.973Z,44.09
2023-01-13T11:57:56.566Z,42.90
2023-01-13T12:00:35.800Z,43.55
2023-01-13T12:03:25.194Z,43.41
2023-01-13T12:06:19.748Z,44.31
2023-01-13T12:09:11.992Z,44.16
2023-01-13T12:12:12.631Z,42.78
2023-01-13T12:14:56.738Z,43.44
2023-01-13T12:17:37.404Z,43.82
2023-01-13T12:20:23.827Z,42.55
2023-01-13T12:23:01.249Z,43.69
2023-01-13T12:25:37.497Z,43.66
2023-01-13T12:28:14.604Z,44.21
2023-01-13T12:30:51.774Z,43.69
2023-01-13T12:33:31.987Z,43.26
2023-01-13T12:36:09.144Z,42.36
2023-01-13T12:38:50.773Z,42.15
2023-01-13T12:41:36.919Z,41.19
2023-01-13T12:44:20.481Z,41.98
2023-01-13T12:46:58.818Z,41.99
2023-01-13T12:49:33.928Z,42.83
2023-01-13T12:52:22.242Z,43.17
2023-01-13T12:55:12.756Z,43.49
2023-01-13T12:57:42.812Z,43.38
2023-01-13T13:00:20.579Z,42.84
2023-01-13T13:03:31.022Z,42.65
2023-01-13T13:06:08.945Z,41.38
2023-01-13T13:08:53.528Z,41.14
2023-01-13T13:11:57.627Z,41.52
2023-01-13T13:15:06.836Z,41.73
2023-01-13T13:17:44.659Z,40.75
2023-01-13T13:20:54.086Z,40.90
2023-01-13T13:23:48.542Z,40.25
2023-01-13T13:26:25.091Z,41.76
2023-01-13T13:29:14.184Z,41.29
2023-01-13T13:32:16.210Z,41.73
2023-01-13T13:34:54.650Z,41.03
2023-01-13T13:38:01.489Z,41.88
2023-01-13T14:47:03.543Z,49.93
2023-01-13T14:49:39.533Z,48.87
2023-01-13T14:52:16.367Z,47.47
2023-01-13T14:54:52.108Z,46.66
2023-01-13T14:57:36.107Z,45.65
2023-01-13T15:00:22.905Z,45.57
2023-01-13T15:03:20.436Z,45.61
2023-01-13T15:06:02.127Z,45.29
2023-01-13T15:08:41.281Z,45.32
2023-01-13T15:11:25.333Z,45.27
2023-01-13T15:14:03.914Z,45.51
2023-01-13T15:16:37.850Z,46.20
2023-01-13T15:19:16.301Z,46.79
2023-01-13T15:21:53.282Z,46.68
2023-01-13T15:24:29.518Z,46.98
2023-01-13T15:27:06.070Z,46.65
2023-01-13T15:29:48.613Z,46.87
2023-01-13T15:32:22.123Z,46.94
2023-01-13T15:34:57.302Z,47.02
2023-01-13T15:37:28.780Z,46.57
2023-01-13T15:40:16.573Z,46.62
2023-01-13T15:42:59.214Z,46.67
2023-01-13T15:45:42.449Z,46.57
2023-01-13T15:48:13.802Z,46.99
2023-01-13T15:54:13.153Z,46.49
2023-01-13T15:59:34.715Z,46.62
2023-01-13T16:02:38.083Z,46.56
2023-01-13T16:05:14.691Z,46.67
2023-01-13T16:07:49.867Z,46.71
2023-01-13T16:10:23.603Z,46.70
2023-01-13T16:12:56.048Z,46.50
2023-01-13T16:15:39.396Z,46.82
2023-01-13T16:18:09.588Z,46.80
2023-01-13T16:20:39.844Z,46.92
2023-01-13T16:23:19.041Z,46.66
2023-01-13T16:25:55.033Z,46.79
2023-01-13T16:28:28.246Z,46.94
2023-01-13T16:30:58.428Z,47.17
2023-01-13T16:33:31.445Z,47.76
2023-01-13T16:36:12.651Z,48.06
2023-01-13T16:38:45.436Z,48.23
2023-01-13T16:41:19.364Z,48.16
2023-01-13T16:44:00.252Z,47.98
2023-01-13T16:46:32.442Z,48.26
2023-01-13T16:49:06.429Z,48.21
2023-01-13T16:51:36.466Z,47.99
2023-01-13T16:54:18.593Z,48.49
2023-01-13T16:56:48.592Z,48.77
2023-01-13T16:59:21.846Z,48.66
2023-01-13T17:01:58.392Z,49.05
2023-01-13T17:04:41.024Z,49.85
2023-01-13T17:07:12.684Z,50.66
2023-01-13T17:09:45.447Z,50.95
2023-01-13T17:12:17.506Z,51.63
2023-01-13T17:14:47.488Z,51.67
2023-01-13T17:17:32.867Z,51.85
2023-01-13T17:20:03.016Z,52.56
2023-01-13T17:22:58.269Z,52.68
2023-01-13T17:25:43.196Z,53.14
2023-01-13T17:28:27.777Z,53.53
2023-01-13T17:38:27.588Z,54.04
2023-01-13T17:41:32.117Z,54.61
2023-01-13T17:44:38.258Z,54.69
2023-01-13T17:47:57.863Z,55.29
2023-01-13T17:50:44.131Z,55.63
2023-01-13T17:53:54.488Z,55.52
2023-01-13T17:58:11.393Z,55.85
2023-01-13T18:06:17.567Z,55.68
2023-01-13T18:08:58.479Z,55.65
2023-01-13T18:15:26.915Z,55.39
2023-01-13T18:18:04.736Z,55.50
2023-01-13T18:21:12.093Z,55.96
2023-01-13T18:27:59.948Z,55.88
2023-01-13T18:31:12.757Z,55.27
2023-01-13T18:33:46.914Z,55.37
2023-01-13T18:37:10.392Z,55.58
2023-01-13T18:40:16.194Z,55.16
2023-01-13T18:43:05.414Z,55.38
2023-01-13T18:52:03.841Z,55.68
2023-01-13T18:53:32.563Z,55.68
2023-01-13T18:56:09.857Z,55.37
2023-01-13T19:03:39.359Z,55.54
2023-01-13T19:06:54.033Z,55.78
2023-01-13T19:09:31.228Z,56.01
2023-01-13T19:12:11.752Z,55.83
2023-01-13T19:14:55.067Z,55.45
2023-01-13T19:17:31.037Z,55.42
2023-01-13T19:20:08.027Z,55.38
2023-01-13T19:23:20.249Z,55.21
2023-01-13T19:25:58.953Z,55.59
2023-01-13T19:28:32.455Z,55.17
2023-01-13T19:31:23.368Z,55.04
2023-01-13T19:34:16.810Z,55.38
2023-01-13T19:36:47.046Z,55.03
2023-01-13T19:39:56.109Z,55.32
2023-01-13T19:42:57.538Z,55.16
2023-01-13T19:45:36.389Z,55.16
2023-01-13T19:48:41.417Z,54.54
2023-01-13T19:51:46.551Z,54.36
2023-01-13T19:54:34.322Z,54.43
2023-01-13T19:57:27.657Z,54.54
2023-01-13T20:00:11.446Z,54.41
2023-01-13T20:03:01.220Z,54.41
2023-01-13T20:05:48.002Z,54.62
2023-01-13T20:08:37.053Z,54.46
2023-01-13T20:11:27.807Z,54.13
2023-01-13T20:14:01.138Z,53.85
2023-01-13T20:16:44.626Z,53.71
2023-01-13T20:19:18.109Z,53.19
2023-01-13T20:22:32.254Z,53.19
2023-01-13T20:25:17.390Z,53.33
2023-01-13T20:28:00.217Z,53.03
2023-01-13T20:30:30.576Z,53.14
2023-01-13T20:33:20.161Z,53.38
2023-01-13T20:36:02.200Z,53.20
2023-01-13T20:41:46.273Z,53.43
2023-01-13T20:44:32.359Z,53.41
2023-01-13T20:47:20.256Z,53.19
2023-01-13T20:53:17.191Z,53.40
2023-01-13T20:55:59.454Z,53.57
2023-01-13T20:58:29.431Z,52.94
2023-01-13T21:01:02.272Z,53.68
2023-01-13T21:03:35.153Z,53.75
2023-01-13T21:06:20.839Z,53.77
2023-01-13T21:09:05.345Z,53.43
2023-01-13T21:11:48.276Z,53.45
2023-01-13T21:14:32.774Z,53.32
2023-01-13T21:17:30.986Z,53.56
2023-01-13T21:20:15.595Z,53.32
2023-01-13T21:22:52.149Z,52.76
2023-01-13T21:25:22.566Z,53.05
2023-01-13T21:27:52.573Z,53.11
2023-01-13T21:30:31.577Z,53.51
2023-01-13T21:33:04.288Z,53.20
2023-01-13T21:35:39.958Z,53.01
2023-01-13T21:38:17.393Z,53.19
2023-01-13T21:40:47.462Z,53.20
2023-01-13T21:43:35.321Z,53.22
2023-01-13T21:46:28.007Z,53.69
2023-01-13T21:49:03.691Z,53.71
2023-01-13T21:51:41.716Z,53.57
2023-01-13T21:54:17.202Z,53.97
2023-01-13T21:56:47.267Z,54.16
2023-01-13T21:59:40.501Z,53.58
2023-01-13T22:02:25.674Z,54.06
2023-01-13T22:05:08.847Z,54.22
2023-01-13T22:08:11.305Z,54.11
2023-01-13T22:10:58.044Z,54.12
2023-01-13T22:13:43.251Z,54.04
2023-01-13T22:16:41.760Z,54.11
2023-01-13T22:19:30.700Z,54.60
2023-01-13T22:22:03.129Z,54.41
2023-01-13T22:24:36.609Z,54.90
2023-01-13T22:27:29.181Z,55.16
2023-01-13T22:30:09.418Z,55.33
2023-01-13T22:32:44.961Z,55.39
2023-01-13T22:35:17.038Z,55.56
2023-01-13T22:37:54.044Z,55.14
2023-01-13T22:40:24.916Z,55.06
2023-01-13T22:43:01.868Z,55.06
2023-01-13T22:45:40.939Z,54.93
2023-01-13T22:48:25.604Z,55.33
2023-01-13T22:51:13.948Z,55.40
2023-01-13T22:53:45.423Z,55.14
2023-01-13T22:56:21.723Z,55.07
2023-01-13T22:59:01.342Z,55.23
2023-01-13T23:01:42.125Z,55.27
2023-01-13T23:04:14.803Z,55.33
2023-01-13T23:06:45.015Z,55.14
2023-01-13T23:09:18.327Z,55.26
2023-01-13T23:11:50.200Z,55.30
2023-01-13T23:14:23.380Z,55.16
2023-01-13T23:16:53.643Z,55.30
2023-01-13T23:19:23.725Z,55.46
2023-01-13T23:21:54.098Z,55.48
2023-01-13T23:24:26.018Z,55.77
2023-01-13T23:26:56.321Z,55.80
2023-01-13T23:29:28.989Z,56.11
2023-01-13T23:32:16.033Z,56.42
2023-01-13T23:34:46.024Z,56.41
2023-01-13T23:37:16.065Z,56.44
2023-01-13T23:39:46.057Z,56.22
2023-01-13T23:42:16.090Z,56.57
2023-01-13T23:44:48.856Z,56.29
2023-01-13T23:47:18.923Z,56.30
2023-01-13T23:49:48.924Z,56.18
2023-01-13T23:52:18.985Z,56.22
2023-01-13T23:54:48.941Z,56.14
2023-01-13T23:57:18.992Z,56.36
2023-01-13T23:59:51.600Z,56.38
